Humidity-temperature Sensor

Selected Measurement Type: Relative Humidity

 
Relative Humidity [%]     6 entries per hour
Showing data from 3/7/2016 (00:00:00 Z) to 3/6/2016 (00:01:00 Z)
Previous Next [ Day | 3-Days | 7-Days ]
First Last
Prev [ Day | 3-Days | 7-Days ] Next
First Last

Start Time:     :
End Time:     :     
Time (in GMT) :00 :50 :40 :30 :20 :10
Previous Next [ Day | 3-Days | 7-Days ]
First Last
Prev [ Day | 3-Days | 7-Days ] Next
First Last


123 => good data
MM => data is determined as missing
-- => data not received/configured
Back to Top Back to Top
3/7/2016 00:00 to 23:10 88.18 88.61 89.00 89.57 89.72 89.39
3/6/2016 23:00 to 22:10 88.98 89.51 88.14 87.63 85.83 85.52
3/6/2016 22:00 to 21:10 84.34 84.50 83.46 87.89 90.76 89.88
3/6/2016 21:00 to 20:10 89.86 91.25 91.99 92.72 93.29 94.15
3/6/2016 20:00 to 19:10 94.77 95.40 96.03 96.10 96.18 96.08
3/6/2016 19:00 to 18:10 95.67 95.56 94.56 85.19 85.89 88.94
3/6/2016 18:00 to 17:10 89.06 87.10 81.45 84.44 85.15 81.25
3/6/2016 17:00 to 16:10 83.05 83.09 82.92 82.54 82.88 83.85
3/6/2016 16:00 to 15:10 86.03 86.75 86.55 84.85 81.53 83.23
3/6/2016 15:00 to 14:10 83.83 84.28 83.48 84.27 83.66 82.99
3/6/2016 14:00 to 13:10 81.84 79.43 80.23 81.35 81.33 82.19
3/6/2016 13:00 to 12:10 82.82 82.45 82.66 81.98 82.15 82.80
3/6/2016 12:00 to 11:10 83.21 84.05 84.70 84.97 83.17 82.68
3/6/2016 11:00 to 10:10 83.52 82.52 84.15 85.71 85.32 85.71
3/6/2016 10:00 to 9:10 82.99 84.95 85.22 82.13 84.38 84.81
3/6/2016 09:00 to 8:10 87.47 88.20 87.51 86.69 84.42 83.31
3/6/2016 08:00 to 7:10 82.15 82.58 82.82 82.84 84.38 84.85
3/6/2016 07:00 to 6:10 84.77 83.72 83.44 84.99 87.55 88.92
3/6/2016 06:00 to 5:10 88.41 88.24 88.98 89.04 87.55 88.18
3/6/2016 05:00 to 4:10 88.49 88.84 88.37 89.45 89.49 87.79
3/6/2016 04:00 to 3:10 85.93 78.79 77.93 76.61 76.61 75.44
3/6/2016 03:00 to 2:10 76.13 76.24 76.01 75.36 75.95 75.50
3/6/2016 02:00 to 1:10 75.91 75.77 76.44 76.30 74.81 74.01
3/6/2016 01:00 to 0:10 74.50 75.46 74.83 73.74 74.62 74.03